createdAt,value
2023-03-21T00:02:29.014Z,7.52
2023-03-21T00:05:16.048Z,7.48
2023-03-21T00:08:02.889Z,7.44
2023-03-21T00:10:47.967Z,7.52
2023-03-21T00:13:33.666Z,7.40
2023-03-21T00:19:27.573Z,7.26
2023-03-21T00:22:12.378Z,7.36
2023-03-21T00:24:57.812Z,7.41
2023-03-21T00:28:01.156Z,7.44
2023-03-21T00:30:48.389Z,7.31
2023-03-21T00:33:34.586Z,7.45
2023-03-21T00:36:19.925Z,7.47
2023-03-21T00:39:06.104Z,7.31
2023-03-21T00:41:51.413Z,7.21
2023-03-21T00:44:36.781Z,7.31
2023-03-21T00:47:23.066Z,7.33
2023-03-21T00:50:11.753Z,7.28
2023-03-21T00:52:56.836Z,7.31
2023-03-21T00:55:41.848Z,7.18
2023-03-21T00:58:27.102Z,7.19
2023-03-21T01:01:11.893Z,7.23
2023-03-21T01:04:03.953Z,7.28
2023-03-21T01:06:49.252Z,7.28
2023-03-21T01:09:33.880Z,7.32
2023-03-21T01:12:18.724Z,7.32
2023-03-21T01:15:03.661Z,7.30
2023-03-21T01:17:49.494Z,7.29
2023-03-21T01:20:34.332Z,7.26
2023-03-21T01:23:19.596Z,7.37
2023-03-21T01:26:05.312Z,7.32
2023-03-21T01:28:50.581Z,7.38
2023-03-21T01:31:35.907Z,7.42
2023-03-21T01:34:21.612Z,7.36
2023-03-21T01:37:06.790Z,7.46
2023-03-21T01:39:53.244Z,7.47
2023-03-21T01:42:39.474Z,7.39
2023-03-21T01:45:58.582Z,7.27
2023-03-21T01:48:44.630Z,7.36
2023-03-21T01:51:33.896Z,7.34
2023-03-21T01:54:25.742Z,7.42
2023-03-21T01:57:16.516Z,7.34
2023-03-21T02:00:13.010Z,7.34
2023-03-21T02:03:11.697Z,7.32
2023-03-21T02:06:17.145Z,7.26
2023-03-21T02:09:08.581Z,7.36
2023-03-21T02:11:54.882Z,7.40
2023-03-21T02:14:39.742Z,7.47
2023-03-21T02:17:46.881Z,7.32
2023-03-21T02:20:58.852Z,7.30
2023-03-21T02:23:58.973Z,7.27
2023-03-21T02:27:15.977Z,7.31
2023-03-21T02:30:45.543Z,7.24
2023-03-21T02:33:57.935Z,7.27
2023-03-21T02:36:48.459Z,7.27
2023-03-21T02:39:56.052Z,7.31
2023-03-21T02:43:00.954Z,7.38
2023-03-21T02:45:54.706Z,7.32
2023-03-21T02:48:50.927Z,7.33
2023-03-21T02:51:39.266Z,7.28
2023-03-21T02:54:41.917Z,7.35
2023-03-21T02:57:42.228Z,7.27
2023-03-21T03:00:31.209Z,7.32
2023-03-21T03:03:27.964Z,7.37
2023-03-21T03:06:21.154Z,7.34
2023-03-21T03:09:39.675Z,7.27
2023-03-21T03:12:34.524Z,7.39
2023-03-21T03:15:34.440Z,7.30
2023-03-21T03:18:31.555Z,7.27
2023-03-21T03:21:37.880Z,7.27
2023-03-21T03:24:47.424Z,7.25
2023-03-21T03:27:37.481Z,7.33
2023-03-21T03:30:32.280Z,7.29
2023-03-21T03:33:27.077Z,7.38
2023-03-21T03:36:30.527Z,7.27
2023-03-21T03:39:18.008Z,7.37
2023-03-21T03:42:27.156Z,7.38
2023-03-21T03:45:13.959Z,7.41
2023-03-21T03:48:08.018Z,7.37
2023-03-21T03:51:16.687Z,7.29
2023-03-21T03:54:10.868Z,7.43
2023-03-21T03:56:57.546Z,7.34
2023-03-21T03:59:44.842Z,7.35
2023-03-21T04:02:32.441Z,7.31
2023-03-21T04:05:21.032Z,7.35
2023-03-21T04:08:07.081Z,7.38
2023-03-21T04:10:52.340Z,7.42
2023-03-21T04:13:37.733Z,7.37
2023-03-21T04:16:23.395Z,7.42
2023-03-21T04:19:09.116Z,7.44
2023-03-21T04:21:54.198Z,7.41
2023-03-21T04:24:40.405Z,7.46
2023-03-21T04:27:25.278Z,7.46
2023-03-21T04:30:12.537Z,7.45
2023-03-21T04:32:57.328Z,7.49
2023-03-21T04:35:42.538Z,7.42
2023-03-21T04:38:30.581Z,7.40
2023-03-21T04:41:15.320Z,7.47
2023-03-21T04:44:01.753Z,7.41
2023-03-21T04:46:46.496Z,7.36
2023-03-21T04:49:31.820Z,7.31
2023-03-21T04:52:17.133Z,7.35
2023-03-21T04:55:02.310Z,7.23
2023-03-21T04:57:48.008Z,7.37
2023-03-21T05:00:37.773Z,7.30
2023-03-21T05:03:23.720Z,7.37
2023-03-21T05:06:10.582Z,7.27
2023-03-21T05:08:59.922Z,7.32
2023-03-21T05:11:44.721Z,7.35
2023-03-21T05:14:29.930Z,7.31
2023-03-21T05:17:23.036Z,7.24
2023-03-21T05:20:12.330Z,7.27
2023-03-21T05:22:57.302Z,7.35
2023-03-21T05:25:42.079Z,7.28
2023-03-21T05:28:31.434Z,7.28
2023-03-21T05:31:18.229Z,7.30
2023-03-21T05:34:03.442Z,7.35
2023-03-21T05:36:48.426Z,7.31
2023-03-21T05:39:33.116Z,7.31
2023-03-21T05:42:19.037Z,7.27
2023-03-21T05:45:04.579Z,7.31
2023-03-21T05:47:50.041Z,7.33
2023-03-21T05:50:34.965Z,7.38
2023-03-21T05:53:21.777Z,7.38
2023-03-21T05:56:08.824Z,7.33
2023-03-21T05:58:54.569Z,7.39
2023-03-21T06:01:39.543Z,7.39
2023-03-21T06:04:24.750Z,7.39
2023-03-21T06:07:10.693Z,7.49
2023-03-21T06:09:55.559Z,7.39
2023-03-21T06:12:40.307Z,7.47
2023-03-21T06:15:26.646Z,7.46
2023-03-21T06:18:11.767Z,7.45
2023-03-21T06:20:57.407Z,7.46
2023-03-21T06:23:43.057Z,7.46
2023-03-21T06:26:28.762Z,7.51
2023-03-21T06:29:14.311Z,7.53
2023-03-21T06:31:59.472Z,7.57
2023-03-21T06:34:45.006Z,7.55
2023-03-21T06:37:29.958Z,7.66
2023-03-21T06:40:15.315Z,7.66
2023-03-21T06:43:00.201Z,7.69
2023-03-21T06:45:45.648Z,7.73
2023-03-21T06:48:31.972Z,7.76
2023-03-21T06:51:17.158Z,7.77
2023-03-21T06:54:02.047Z,7.74
2023-03-21T06:56:48.003Z,7.82
2023-03-21T06:59:32.841Z,7.80
2023-03-21T07:02:17.889Z,7.81
2023-03-21T07:05:04.341Z,7.77
2023-03-21T07:07:49.666Z,7.77
2023-03-21T07:10:34.998Z,7.85
2023-03-21T07:13:19.911Z,7.90
2023-03-21T07:16:06.174Z,7.89
2023-03-21T07:18:51.125Z,7.89
2023-03-21T07:21:36.334Z,8.01
2023-03-21T07:24:21.243Z,8.09
2023-03-21T07:27:06.568Z,8.07
2023-03-21T07:29:51.446Z,8.08
2023-03-21T07:32:37.814Z,8.17
2023-03-21T07:35:22.806Z,8.20
2023-03-21T07:38:08.096Z,8.18
2023-03-21T07:40:53.357Z,8.31
2023-03-21T07:43:39.712Z,8.29
2023-03-21T07:46:25.064Z,8.38
2023-03-21T07:49:10.270Z,8.40
2023-03-21T07:51:55.253Z,8.35
2023-03-21T07:54:40.261Z,8.45
2023-03-21T07:57:25.542Z,8.55
2023-03-21T08:00:12.512Z,8.53
2023-03-21T08:02:59.832Z,8.56
2023-03-21T08:05:45.396Z,8.57
2023-03-21T08:08:31.710Z,8.61
2023-03-21T08:11:18.008Z,8.51
2023-03-21T08:14:04.271Z,8.58
2023-03-21T08:16:49.333Z,8.57
2023-03-21T08:19:35.974Z,8.61
2023-03-21T08:22:21.575Z,8.69
2023-03-21T08:25:08.378Z,8.63
2023-03-21T08:27:53.897Z,8.70
2023-03-21T08:30:39.020Z,8.69
2023-03-21T08:33:27.033Z,8.66
2023-03-21T08:36:12.313Z,8.69
2023-03-21T08:39:05.464Z,8.74
2023-03-21T08:41:50.665Z,8.77
2023-03-21T08:44:36.355Z,8.81
2023-03-21T08:47:22.038Z,8.98
2023-03-21T08:50:09.276Z,9.04
2023-03-21T08:52:54.695Z,9.19
2023-03-21T08:55:39.693Z,9.33
2023-03-21T08:58:25.926Z,9.42
2023-03-21T09:01:15.441Z,9.56
2023-03-21T09:04:00.858Z,9.58
2023-03-21T09:06:47.635Z,9.65
2023-03-21T09:09:32.497Z,9.65
2023-03-21T09:12:17.651Z,9.71
2023-03-21T09:15:03.566Z,9.87
2023-03-21T09:17:52.314Z,9.91
2023-03-21T09:20:38.302Z,9.88
2023-03-21T09:23:24.282Z,9.88
2023-03-21T09:26:09.618Z,9.95
2023-03-21T09:28:55.959Z,10.09
2023-03-21T09:31:41.235Z,10.13
2023-03-21T09:34:26.684Z,10.19
2023-03-21T09:37:13.227Z,10.12
2023-03-21T09:39:58.303Z,10.16
2023-03-21T09:43:32.292Z,10.20
2023-03-21T09:46:42.743Z,10.21
2023-03-21T09:49:36.249Z,10.32
2023-03-21T09:52:29.707Z,10.39
2023-03-21T09:55:21.694Z,10.40
2023-03-21T09:58:13.751Z,10.38
2023-03-21T10:01:10.698Z,10.48
2023-03-21T10:04:01.124Z,10.58
2023-03-21T10:06:55.331Z,10.71
2023-03-21T10:09:44.598Z,10.81
2023-03-21T10:12:32.638Z,11.02
2023-03-21T10:15:20.793Z,10.74
2023-03-21T10:18:08.594Z,10.86
2023-03-21T10:20:55.653Z,10.80
2023-03-21T10:23:40.438Z,10.73
2023-03-21T10:26:29.285Z,10.61
2023-03-21T10:29:16.637Z,10.57
2023-03-21T10:32:02.949Z,10.59
2023-03-21T10:37:44.648Z,10.65
2023-03-21T10:40:29.837Z,10.77
2023-03-21T10:43:27.306Z,10.85
2023-03-21T10:46:18.845Z,11.03
2023-03-21T10:49:07.652Z,11.09
2023-03-21T10:51:56.386Z,11.13
2023-03-21T10:54:42.466Z,10.84
2023-03-21T10:57:27.873Z,10.91
2023-03-21T11:00:22.076Z,10.93
2023-03-21T11:03:20.630Z,10.90
2023-03-21T11:06:22.176Z,10.79
2023-03-21T11:09:20.622Z,10.76
2023-03-21T11:12:11.784Z,10.85
2023-03-21T11:14:57.900Z,10.87
2023-03-21T11:17:45.458Z,10.93
2023-03-21T11:20:31.468Z,10.99
2023-03-21T11:23:19.449Z,11.06
2023-03-21T11:26:11.536Z,11.02
2023-03-21T11:28:57.348Z,11.03
2023-03-21T11:31:42.235Z,11.11
2023-03-21T11:34:47.336Z,11.14
2023-03-21T11:37:37.800Z,11.22
2023-03-21T11:40:31.741Z,11.16
2023-03-21T11:43:20.251Z,11.17
2023-03-21T11:46:13.365Z,11.19
2023-03-21T11:49:00.337Z,11.20
2023-03-21T11:51:53.959Z,11.36
2023-03-21T11:54:57.707Z,11.44
2023-03-21T11:57:47.600Z,11.52
2023-03-21T12:00:43.133Z,11.46
2023-03-21T12:03:48.766Z,11.39
2023-03-21T12:06:38.017Z,11.47
2023-03-21T12:09:34.841Z,11.51
2023-03-21T12:12:47.398Z,11.53
2023-03-21T12:15:38.762Z,11.60
2023-03-21T12:18:49.644Z,11.54
2023-03-21T12:22:00.489Z,11.60
2023-03-21T12:24:50.421Z,11.61
2023-03-21T12:28:02.815Z,11.69
2023-03-21T12:30:59.995Z,11.67
2023-03-21T12:33:57.046Z,11.78
2023-03-21T12:37:07.074Z,11.86
2023-03-21T12:39:58.251Z,12.01
2023-03-21T12:43:26.123Z,11.97
2023-03-21T12:46:39.319Z,12.00
2023-03-21T12:49:42.892Z,11.77
2023-03-21T12:52:40.291Z,11.71
2023-03-21T12:55:29.929Z,11.62
2023-03-21T12:58:19.637Z,11.68
2023-03-21T13:01:06.655Z,11.76
2023-03-21T13:04:31.622Z,11.75
2023-03-21T13:07:20.302Z,11.85
2023-03-21T13:10:15.682Z,11.78
2023-03-21T13:13:10.921Z,11.63
2023-03-21T13:16:16.351Z,11.47
2023-03-21T13:19:11.278Z,11.30
2023-03-21T13:22:18.227Z,11.14
2023-03-21T13:25:21.954Z,11.09
2023-03-21T13:28:07.279Z,11.09
2023-03-21T13:30:52.570Z,11.07
2023-03-21T13:33:44.945Z,11.07
2023-03-21T13:36:32.416Z,11.01
2023-03-21T13:39:20.709Z,11.14
2023-03-21T13:42:18.301Z,11.13
2023-03-21T13:45:11.698Z,11.02
2023-03-21T13:48:01.126Z,11.11
2023-03-21T13:51:00.859Z,11.04
2023-03-21T13:54:08.550Z,10.96
2023-03-21T13:56:59.953Z,10.85
2023-03-21T13:59:46.164Z,10.77
2023-03-21T14:02:38.382Z,10.84
2023-03-21T14:05:26.367Z,10.92
2023-03-21T14:08:27.904Z,10.74
2023-03-21T14:11:19.175Z,10.78
2023-03-21T14:14:05.123Z,10.69
2023-03-21T14:16:53.471Z,10.68
2023-03-21T14:19:39.110Z,10.70
2023-03-21T14:22:24.173Z,10.68
2023-03-21T14:25:14.577Z,10.72
2023-03-21T14:28:04.255Z,10.75
2023-03-21T14:30:55.919Z,10.71
2023-03-21T14:33:47.751Z,10.66
2023-03-21T14:36:43.136Z,10.60
2023-03-21T14:39:33.652Z,10.64
2023-03-21T14:42:20.742Z,10.54
2023-03-21T14:45:14.591Z,10.53
2023-03-21T14:48:08.508Z,10.54
2023-03-21T14:50:56.219Z,10.49
2023-03-21T14:53:42.895Z,10.54
2023-03-21T14:56:29.121Z,10.48
2023-03-21T14:59:18.748Z,10.57
2023-03-21T15:02:15.496Z,10.51
2023-03-21T15:05:10.590Z,10.51
2023-03-21T15:08:01.870Z,10.48
2023-03-21T15:11:09.665Z,10.50
2023-03-21T15:13:55.673Z,10.60
2023-03-21T15:16:41.297Z,10.60
2023-03-21T15:19:35.478Z,10.53
2023-03-21T15:22:37.244Z,10.49
2023-03-21T15:25:28.766Z,10.50
2023-03-21T15:28:14.908Z,10.50
2023-03-21T15:31:00.195Z,10.47
2023-03-21T15:33:51.084Z,10.44
2023-03-21T15:36:48.466Z,10.47
2023-03-21T15:39:36.137Z,10.48
2023-03-21T15:42:47.273Z,10.46
2023-03-21T15:45:32.183Z,10.46
2023-03-21T15:48:23.138Z,10.38
2023-03-21T15:51:21.370Z,10.53
2023-03-21T15:54:15.266Z,10.44
2023-03-21T15:57:09.662Z,10.43
2023-03-21T16:00:03.121Z,10.43
2023-03-21T16:02:54.723Z,10.46
2023-03-21T16:05:42.609Z,10.41
2023-03-21T16:08:32.418Z,10.25
2023-03-21T16:11:29.837Z,10.27
2023-03-21T16:14:14.881Z,10.29
2023-03-21T16:17:00.018Z,10.31
2023-03-21T16:19:45.136Z,10.25
2023-03-21T16:22:35.162Z,10.29
2023-03-21T16:25:21.878Z,10.27
2023-03-21T16:28:16.378Z,10.21
2023-03-21T16:31:01.492Z,10.18
2023-03-21T16:33:47.377Z,10.17
2023-03-21T16:36:37.102Z,10.11
2023-03-21T16:39:25.231Z,10.15
2023-03-21T16:42:12.791Z,10.13
2023-03-21T16:44:58.935Z,10.02
2023-03-21T16:47:44.728Z,10.01
2023-03-21T16:50:34.619Z,10.06
2023-03-21T16:53:19.779Z,10.07
2023-03-21T16:56:07.681Z,10.01
2023-03-21T16:58:56.060Z,10.05
2023-03-21T17:01:45.986Z,10.08
2023-03-21T17:04:31.557Z,10.04
2023-03-21T17:07:17.973Z,10.05
2023-03-21T17:10:03.488Z,10.01
2023-03-21T17:12:49.119Z,10.09
2023-03-21T17:15:34.358Z,10.04
2023-03-21T17:18:19.340Z,10.02
2023-03-21T17:21:15.961Z,10.04
2023-03-21T17:24:00.882Z,10.02
2023-03-21T17:26:45.788Z,9.94
2023-03-21T17:29:31.324Z,9.90
2023-03-21T17:32:17.991Z,9.81
2023-03-21T17:35:04.231Z,9.84
2023-03-21T17:37:53.776Z,9.84
2023-03-21T17:40:39.197Z,9.77
2023-03-21T17:43:24.317Z,9.77
2023-03-21T17:46:25.134Z,9.83
2023-03-21T17:49:14.237Z,9.81
2023-03-21T17:51:59.549Z,9.80
2023-03-21T17:54:44.402Z,9.76
2023-03-21T17:57:29.306Z,9.71
2023-03-21T18:00:18.324Z,9.72
2023-03-21T18:03:03.566Z,9.76
2023-03-21T18:05:49.723Z,9.71
2023-03-21T18:08:35.267Z,9.68
2023-03-21T18:11:22.868Z,9.56
2023-03-21T18:14:16.248Z,9.67
2023-03-21T18:17:03.377Z,9.68
2023-03-21T18:19:48.839Z,9.74
2023-03-21T18:22:34.171Z,9.64
2023-03-21T18:25:19.163Z,9.74
2023-03-21T18:28:11.539Z,9.74
2023-03-21T18:31:09.576Z,9.71
2023-03-21T18:33:56.092Z,9.68
2023-03-21T18:36:42.736Z,9.60
2023-03-21T18:39:28.169Z,9.63
2023-03-21T18:42:17.925Z,9.63
2023-03-21T18:45:13.910Z,9.68
2023-03-21T18:47:59.148Z,9.65
2023-03-21T18:50:44.133Z,9.68
2023-03-21T18:53:34.858Z,9.62
2023-03-21T18:56:58.028Z,9.60
2023-03-21T18:59:26.248Z,9.61
2023-03-21T19:02:15.288Z,9.63
2023-03-21T19:05:01.590Z,9.59
2023-03-21T19:07:47.859Z,9.57
2023-03-21T19:10:34.881Z,9.58
2023-03-21T19:13:22.433Z,9.64
2023-03-21T19:16:11.240Z,9.57
2023-03-21T19:18:57.655Z,9.57
2023-03-21T19:21:43.406Z,9.54
2023-03-21T19:24:29.138Z,9.49
2023-03-21T19:27:17.195Z,9.49
2023-03-21T19:30:13.893Z,9.42
2023-03-21T19:33:01.535Z,9.47
2023-03-21T19:35:48.069Z,9.48
2023-03-21T19:38:33.355Z,9.48
2023-03-21T19:41:22.551Z,9.44
2023-03-21T19:44:08.042Z,9.41
2023-03-21T19:46:54.674Z,9.46
2023-03-21T19:50:27.727Z,9.41
2023-03-21T19:52:49.872Z,9.44
2023-03-21T19:55:36.536Z,9.42
2023-03-21T19:58:22.791Z,9.37
2023-03-21T20:01:12.388Z,9.36
2023-03-21T20:03:59.460Z,9.44
2023-03-21T20:06:53.426Z,9.35
2023-03-21T20:09:51.457Z,9.35
2023-03-21T20:12:37.795Z,9.40
2023-03-21T20:15:26.719Z,9.43
2023-03-21T20:18:14.234Z,9.30
2023-03-21T20:21:02.173Z,9.43
2023-03-21T20:23:51.109Z,9.42
2023-03-21T20:26:37.328Z,9.36
2023-03-21T20:32:33.296Z,9.35
2023-03-21T20:35:28.916Z,9.40
2023-03-21T20:38:27.057Z,9.37
2023-03-21T20:41:12.916Z,9.36
2023-03-21T20:47:07.808Z,9.35
2023-03-21T20:49:52.699Z,9.35
2023-03-21T20:53:05.627Z,9.28
2023-03-21T20:55:47.708Z,9.27
2023-03-21T20:58:59.389Z,9.27
2023-03-21T21:01:46.164Z,9.32
2023-03-21T21:04:52.498Z,9.30
2023-03-21T21:07:38.738Z,9.34
2023-03-21T21:10:26.865Z,9.40
2023-03-21T21:13:12.144Z,9.41
2023-03-21T21:15:58.672Z,9.41
2023-03-21T21:18:43.918Z,9.36
2023-03-21T21:21:30.967Z,9.40
2023-03-21T21:24:16.457Z,9.38
2023-03-21T21:27:01.408Z,9.36
2023-03-21T21:29:48.029Z,9.35
2023-03-21T21:32:33.697Z,9.35
2023-03-21T21:35:20.564Z,9.31
2023-03-21T21:38:05.574Z,9.33
2023-03-21T21:40:52.150Z,9.36
2023-03-21T21:43:37.042Z,9.34
2023-03-21T21:46:22.043Z,9.30
2023-03-21T21:49:07.002Z,9.34
2023-03-21T21:51:52.513Z,9.24
2023-03-21T21:54:39.510Z,9.21
2023-03-21T21:57:24.728Z,9.14
2023-03-21T22:00:13.408Z,9.20
2023-03-21T22:03:00.483Z,9.15
2023-03-21T22:05:47.967Z,9.13
2023-03-21T22:08:33.775Z,9.06
2023-03-21T22:11:19.238Z,9.04
2023-03-21T22:14:04.378Z,9.05
2023-03-21T22:16:49.308Z,9.07
2023-03-21T22:19:35.544Z,9.01
2023-03-21T22:22:20.673Z,9.00
2023-03-21T22:25:08.316Z,8.95
2023-03-21T22:27:53.336Z,9.01
2023-03-21T22:30:38.887Z,8.89
2023-03-21T22:33:25.645Z,8.78
2023-03-21T22:36:11.722Z,8.76
2023-03-21T22:38:57.004Z,8.80
2023-03-21T22:41:41.849Z,8.74
2023-03-21T22:44:34.310Z,8.82
2023-03-21T22:47:19.989Z,8.71
2023-03-21T22:50:06.473Z,8.82
2023-03-21T22:52:52.961Z,8.80
2023-03-21T22:55:38.846Z,8.78
2023-03-21T22:58:24.158Z,8.84
2023-03-21T23:01:09.050Z,8.84
2023-03-21T23:03:54.293Z,8.78
2023-03-21T23:06:39.436Z,8.74
2023-03-21T23:09:24.920Z,8.72
2023-03-21T23:12:10.454Z,8.70
2023-03-21T23:14:55.776Z,8.60
2023-03-21T23:17:41.024Z,8.57
2023-03-21T23:20:26.187Z,8.46
2023-03-21T23:23:11.314Z,8.52
2023-03-21T23:25:57.009Z,8.54
2023-03-21T23:28:42.398Z,8.57
2023-03-21T23:31:28.025Z,8.55
2023-03-21T23:34:13.518Z,8.51
2023-03-21T23:36:58.635Z,8.52
2023-03-21T23:39:45.197Z,8.48
2023-03-21T23:42:31.224Z,8.46
2023-03-21T23:45:16.164Z,8.37
2023-03-21T23:48:01.347Z,8.41
2023-03-21T23:50:46.096Z,8.36
2023-03-21T23:53:31.448Z,8.29
2023-03-21T23:56:21.842Z,8.21
2023-03-21T23:59:07.474Z,8.16
